sensor_id;sensor_type;location;lat;lon;timestamp;pressure;altitude;pressure_sealevel;temperature;humidity
44663;BME280;30381;52.754;18.258;2023-03-25T00:01:35;99509.10;;;7.17;100.00
44663;BME280;30381;52.754;18.258;2023-03-25T00:04:03;99501.14;;;7.14;100.00
44663;BME280;30381;52.754;18.258;2023-03-25T00:06:31;99503.70;;;7.13;100.00
44663;BME280;30381;52.754;18.258;2023-03-25T00:09:02;99507.49;;;7.12;100.00
44663;BME280;30381;52.754;18.258;2023-03-25T00:11:29;99501.41;;;7.12;100.00
44663;BME280;30381;52.754;18.258;2023-03-25T00:13:59;99497.27;;;7.11;100.00
44663;BME280;30381;52.754;18.258;2023-03-25T00:16:25;99497.59;;;7.08;100.00
44663;BME280;30381;52.754;18.258;2023-03-25T00:18:52;99511.58;;;7.06;100.00
44663;BME280;30381;52.754;18.258;2023-03-25T00:21:18;99518.18;;;7.03;100.00
44663;BME280;30381;52.754;18.258;2023-03-25T00:23:46;99514.29;;;6.99;100.00
44663;BME280;30381;52.754;18.258;2023-03-25T00:26:12;99509.73;;;6.98;100.00
44663;BME280;30381;52.754;18.258;2023-03-25T00:28:38;99508.91;;;6.96;100.00
44663;BME280;30381;52.754;18.258;2023-03-25T00:31:07;99512.73;;;6.94;100.00
44663;BME280;30381;52.754;18.258;2023-03-25T00:33:42;99516.59;;;6.93;100.00
44663;BME280;30381;52.754;18.258;2023-03-25T00:36:10;99518.90;;;6.94;100.00
44663;BME280;30381;52.754;18.258;2023-03-25T00:38:39;99513.81;;;6.94;100.00
44663;BME280;30381;52.754;18.258;2023-03-25T00:41:14;99511.94;;;6.95;100.00
44663;BME280;30381;52.754;18.258;2023-03-25T00:43:43;99509.40;;;6.96;100.00
44663;BME280;30381;52.754;18.258;2023-03-25T00:46:10;99497.48;;;6.97;100.00
44663;BME280;30381;52.754;18.258;2023-03-25T00:48:37;99494.19;;;6.96;100.00
44663;BME280;30381;52.754;18.258;2023-03-25T00:51:04;99485.17;;;6.96;100.00
44663;BME280;30381;52.754;18.258;2023-03-25T00:53:36;99477.65;;;6.98;100.00
44663;BME280;30381;52.754;18.258;2023-03-25T00:56:03;99476.09;;;6.98;100.00
44663;BME280;30381;52.754;18.258;2023-03-25T00:58:30;99473.73;;;7.00;100.00
44663;BME280;30381;52.754;18.258;2023-03-25T01:00:57;99474.23;;;7.01;100.00
44663;BME280;30381;52.754;18.258;2023-03-25T01:03:27;99465.98;;;7.02;100.00
44663;BME280;30381;52.754;18.258;2023-03-25T01:05:56;99463.50;;;7.02;100.00
44663;BME280;30381;52.754;18.258;2023-03-25T01:08:23;99459.19;;;7.02;100.00
44663;BME280;30381;52.754;18.258;2023-03-25T01:10:53;99470.96;;;7.02;100.00
44663;BME280;30381;52.754;18.258;2023-03-25T01:13:20;99474.16;;;7.00;100.00
44663;BME280;30381;52.754;18.258;2023-03-25T01:15:46;99470.74;;;6.99;100.00
44663;BME280;30381;52.754;18.258;2023-03-25T01:18:13;99474.59;;;6.98;100.00
44663;BME280;30381;52.754;18.258;2023-03-25T01:20:41;99475.27;;;6.97;100.00
44663;BME280;30381;52.754;18.258;2023-03-25T01:23:07;99476.58;;;6.95;100.00
44663;BME280;30381;52.754;18.258;2023-03-25T01:25:36;99472.23;;;6.93;100.00
44663;BME280;30381;52.754;18.258;2023-03-25T01:28:03;99473.77;;;6.91;100.00
44663;BME280;30381;52.754;18.258;2023-03-25T01:30:30;99468.66;;;6.88;100.00
44663;BME280;30381;52.754;18.258;2023-03-25T01:32:56;99464.80;;;6.86;100.00
44663;BME280;30381;52.754;18.258;2023-03-25T01:35:23;99463.33;;;6.83;100.00
44663;BME280;30381;52.754;18.258;2023-03-25T01:37:49;99456.17;;;6.79;100.00
44663;BME280;30381;52.754;18.258;2023-03-25T01:40:18;99459.88;;;6.76;100.00
44663;BME280;30381;52.754;18.258;2023-03-25T01:42:45;99462.23;;;6.74;100.00
44663;BME280;30381;52.754;18.258;2023-03-25T01:45:28;99462.30;;;6.71;100.00
44663;BME280;30381;52.754;18.258;2023-03-25T01:48:03;99465.19;;;6.68;100.00
44663;BME280;30381;52.754;18.258;2023-03-25T01:50:34;99467.10;;;6.64;100.00
44663;BME280;30381;52.754;18.258;2023-03-25T01:53:02;99465.45;;;6.61;100.00
44663;BME280;30381;52.754;18.258;2023-03-25T01:55:32;99461.70;;;6.58;100.00
44663;BME280;30381;52.754;18.258;2023-03-25T01:58:01;99460.67;;;6.55;100.00
44663;BME280;30381;52.754;18.258;2023-03-25T02:00:30;99461.77;;;6.53;100.00
44663;BME280;30381;52.754;18.258;2023-03-25T02:02:58;99466.45;;;6.50;100.00
44663;BME280;30381;52.754;18.258;2023-03-25T02:05:31;99467.52;;;6.48;100.00
44663;BME280;30381;52.754;18.258;2023-03-25T02:08:01;99463.09;;;6.44;100.00
44663;BME280;30381;52.754;18.258;2023-03-25T02:10:29;99461.05;;;6.41;100.00
44663;BME280;30381;52.754;18.258;2023-03-25T02:12:55;99462.17;;;6.39;100.00
44663;BME280;30381;52.754;18.258;2023-03-25T02:15:21;99464.59;;;6.39;100.00
44663;BME280;30381;52.754;18.258;2023-03-25T02:18:15;99460.72;;;6.38;100.00
44663;BME280;30381;52.754;18.258;2023-03-25T02:23:56;99443.45;;;6.42;100.00
44663;BME280;30381;52.754;18.258;2023-03-25T02:39:38;99439.70;;;6.28;100.00
44663;BME280;30381;52.754;18.258;2023-03-25T02:42:29;99437.92;;;6.23;100.00
44663;BME280;30381;52.754;18.258;2023-03-25T02:45:01;99433.37;;;6.20;100.00
44663;BME280;30381;52.754;18.258;2023-03-25T02:47:33;99427.23;;;6.17;100.00
44663;BME280;30381;52.754;18.258;2023-03-25T02:50:05;99422.69;;;6.15;100.00
44663;BME280;30381;52.754;18.258;2023-03-25T02:52:38;99417.81;;;6.13;100.00
44663;BME280;30381;52.754;18.258;2023-03-25T02:55:09;99416.56;;;6.12;100.00
44663;BME280;30381;52.754;18.258;2023-03-25T02:57:39;99422.69;;;6.11;100.00
44663;BME280;30381;52.754;18.258;2023-03-25T03:00:09;99426.41;;;6.10;100.00
44663;BME280;30381;52.754;18.258;2023-03-25T03:03:04;99430.14;;;6.08;100.00
44663;BME280;30381;52.754;18.258;2023-03-25T03:05:33;99431.49;;;6.05;100.00
44663;BME280;30381;52.754;18.258;2023-03-25T03:11:12;99433.62;;;6.02;100.00
44663;BME280;30381;52.754;18.258;2023-03-25T03:19:24;99425.17;;;6.06;100.00
44663;BME280;30381;52.754;18.258;2023-03-25T03:24:33;99418.70;;;6.05;100.00
44663;BME280;30381;52.754;18.258;2023-03-25T03:27:12;99419.08;;;6.05;100.00
44663;BME280;30381;52.754;18.258;2023-03-25T03:29:49;99417.65;;;6.04;100.00
44663;BME280;30381;52.754;18.258;2023-03-25T03:35:40;99425.17;;;6.01;100.00
44663;BME280;30381;52.754;18.258;2023-03-25T03:38:11;99424.42;;;5.99;100.00
44663;BME280;30381;52.754;18.258;2023-03-25T03:40:44;99422.21;;;5.98;100.00
44663;BME280;30381;52.754;18.258;2023-03-25T03:43:26;99416.78;;;5.96;100.00
44663;BME280;30381;52.754;18.258;2023-03-25T03:45:58;99419.92;;;5.92;100.00
44663;BME280;30381;52.754;18.258;2023-03-25T03:48:56;99419.52;;;5.89;100.00
44663;BME280;30381;52.754;18.258;2023-03-25T03:51:27;99428.23;;;5.86;100.00
44663;BME280;30381;52.754;18.258;2023-03-25T03:53:59;99438.90;;;5.84;100.00
44663;BME280;30381;52.754;18.258;2023-03-25T03:56:39;99441.35;;;5.83;100.00
44663;BME280;30381;52.754;18.258;2023-03-25T03:59:37;99451.23;;;5.83;100.00
44663;BME280;30381;52.754;18.258;2023-03-25T04:02:34;99460.88;;;5.82;100.00
44663;BME280;30381;52.754;18.258;2023-03-25T04:04:59;99461.02;;;5.81;100.00
44663;BME280;30381;52.754;18.258;2023-03-25T04:07:56;99465.83;;;5.81;100.00
44663;BME280;30381;52.754;18.258;2023-03-25T04:12:55;99466.30;;;5.79;100.00
44663;BME280;30381;52.754;18.258;2023-03-25T04:15:25;99468.00;;;5.80;100.00
44663;BME280;30381;52.754;18.258;2023-03-25T04:17:51;99473.56;;;5.79;100.00
44663;BME280;30381;52.754;18.258;2023-03-25T04:20:22;99469.44;;;5.80;100.00
44663;BME280;30381;52.754;18.258;2023-03-25T04:22:51;99476.51;;;5.79;100.00
44663;BME280;30381;52.754;18.258;2023-03-25T04:25:18;99471.02;;;5.79;100.00
44663;BME280;30381;52.754;18.258;2023-03-25T04:27:47;99469.52;;;5.78;100.00
44663;BME280;30381;52.754;18.258;2023-03-25T04:30:18;99464.95;;;5.78;100.00
44663;BME280;30381;52.754;18.258;2023-03-25T04:32:46;99459.63;;;5.77;100.00
44663;BME280;30381;52.754;18.258;2023-03-25T04:35:13;99462.81;;;5.79;100.00
44663;BME280;30381;52.754;18.258;2023-03-25T04:37:42;99470.86;;;5.79;100.00
44663;BME280;30381;52.754;18.258;2023-03-25T04:40:12;99474.59;;;5.80;100.00
44663;BME280;30381;52.754;18.258;2023-03-25T04:42:44;99468.20;;;5.80;100.00
44663;BME280;30381;52.754;18.258;2023-03-25T04:45:13;99473.80;;;5.81;100.00
44663;BME280;30381;52.754;18.258;2023-03-25T04:47:43;99472.62;;;5.80;100.00
44663;BME280;30381;52.754;18.258;2023-03-25T04:50:19;99476.95;;;5.80;100.00
44663;BME280;30381;52.754;18.258;2023-03-25T04:52:45;99481.95;;;5.80;100.00
44663;BME280;30381;52.754;18.258;2023-03-25T04:55:12;99482.48;;;5.80;100.00
44663;BME280;30381;52.754;18.258;2023-03-25T04:57:44;99480.17;;;5.80;100.00
44663;BME280;30381;52.754;18.258;2023-03-25T05:00:12;99475.02;;;5.80;100.00
44663;BME280;30381;52.754;18.258;2023-03-25T05:02:47;99476.20;;;5.81;100.00
44663;BME280;30381;52.754;18.258;2023-03-25T05:05:19;99468.30;;;5.84;100.00
44663;BME280;30381;52.754;18.258;2023-03-25T05:07:53;99464.80;;;5.87;100.00
44663;BME280;30381;52.754;18.258;2023-03-25T05:10:22;99467.21;;;5.88;100.00
44663;BME280;30381;52.754;18.258;2023-03-25T05:12:49;99471.33;;;5.90;100.00
44663;BME280;30381;52.754;18.258;2023-03-25T05:15:16;99477.83;;;5.90;100.00
44663;BME280;30381;52.754;18.258;2023-03-25T05:17:43;99482.60;;;5.92;100.00
44663;BME280;30381;52.754;18.258;2023-03-25T05:20:11;99483.36;;;5.95;100.00
44663;BME280;30381;52.754;18.258;2023-03-25T05:22:39;99477.36;;;5.98;100.00
44663;BME280;30381;52.754;18.258;2023-03-25T05:25:08;99472.49;;;6.00;100.00
44663;BME280;30381;52.754;18.258;2023-03-25T05:27:35;99463.86;;;6.03;100.00
44663;BME280;30381;52.754;18.258;2023-03-25T05:30:03;99463.61;;;6.06;100.00
44663;BME280;30381;52.754;18.258;2023-03-25T05:32:30;99463.98;;;6.14;100.00
44663;BME280;30381;52.754;18.258;2023-03-25T05:34:58;99466.29;;;6.53;100.00
44663;BME280;30381;52.754;18.258;2023-03-25T05:37:25;99465.00;;;7.03;100.00
44663;BME280;30381;52.754;18.258;2023-03-25T05:39:52;99465.30;;;7.53;100.00
44663;BME280;30381;52.754;18.258;2023-03-25T05:42:18;99470.98;;;7.97;100.00
44663;BME280;30381;52.754;18.258;2023-03-25T05:44:48;99472.90;;;8.47;100.00
44663;BME280;30381;52.754;18.258;2023-03-25T05:47:22;99467.48;;;9.03;100.00
44663;BME280;30381;52.754;18.258;2023-03-25T05:49:50;99465.70;;;9.56;100.00
44663;BME280;30381;52.754;18.258;2023-03-25T05:52:18;99463.46;;;10.01;100.00
44663;BME280;30381;52.754;18.258;2023-03-25T05:54:46;99463.49;;;10.48;100.00
44663;BME280;30381;52.754;18.258;2023-03-25T05:57:15;99469.62;;;10.91;100.00
44663;BME280;30381;52.754;18.258;2023-03-25T05:59:41;99466.90;;;11.27;100.00
44663;BME280;30381;52.754;18.258;2023-03-25T06:02:12;99460.34;;;11.62;100.00
44663;BME280;30381;52.754;18.258;2023-03-25T06:04:40;99462.08;;;11.67;100.00
44663;BME280;30381;52.754;18.258;2023-03-25T06:07:07;99460.96;;;11.98;100.00
44663;BME280;30381;52.754;18.258;2023-03-25T06:09:40;99457.77;;;12.26;100.00
44663;BME280;30381;52.754;18.258;2023-03-25T06:12:18;99463.10;;;12.58;100.00
44663;BME280;30381;52.754;18.258;2023-03-25T06:14:48;99460.04;;;12.91;100.00
44663;BME280;30381;52.754;18.258;2023-03-25T06:17:20;99455.95;;;12.69;100.00
44663;BME280;30381;52.754;18.258;2023-03-25T06:19:50;99454.52;;;12.30;100.00
44663;BME280;30381;52.754;18.258;2023-03-25T06:22:17;99441.55;;;12.05;100.00
44663;BME280;30381;52.754;18.258;2023-03-25T06:24:47;99443.00;;;12.35;100.00
44663;BME280;30381;52.754;18.258;2023-03-25T06:27:18;99449.15;;;12.74;100.00
44663;BME280;30381;52.754;18.258;2023-03-25T06:29:44;99453.89;;;13.05;100.00
44663;BME280;30381;52.754;18.258;2023-03-25T06:32:13;99455.14;;;12.94;100.00
44663;BME280;30381;52.754;18.258;2023-03-25T06:34:39;99458.34;;;12.55;100.00
44663;BME280;30381;52.754;18.258;2023-03-25T06:37:12;99461.30;;;12.18;100.00
44663;BME280;30381;52.754;18.258;2023-03-25T06:39:38;99473.70;;;11.81;100.00
44663;BME280;30381;52.754;18.258;2023-03-25T06:42:04;99473.46;;;11.71;100.00
44663;BME280;30381;52.754;18.258;2023-03-25T06:44:32;99472.29;;;11.86;100.00
44663;BME280;30381;52.754;18.258;2023-03-25T06:46:59;99473.48;;;11.96;100.00
44663;BME280;30381;52.754;18.258;2023-03-25T06:49:27;99469.26;;;11.88;100.00
44663;BME280;30381;52.754;18.258;2023-03-25T06:51:54;99473.99;;;11.70;100.00
44663;BME280;30381;52.754;18.258;2023-03-25T06:54:20;99469.11;;;11.54;100.00
44663;BME280;30381;52.754;18.258;2023-03-25T06:56:47;99466.34;;;11.41;100.00
44663;BME280;30381;52.754;18.258;2023-03-25T06:59:13;99468.60;;;11.36;100.00
44663;BME280;30381;52.754;18.258;2023-03-25T07:01:42;99468.87;;;11.37;100.00
44663;BME280;30381;52.754;18.258;2023-03-25T07:04:08;99464.31;;;11.35;100.00
44663;BME280;30381;52.754;18.258;2023-03-25T07:06:35;99464.19;;;11.24;100.00
44663;BME280;30381;52.754;18.258;2023-03-25T07:09:01;99468.45;;;11.16;100.00
44663;BME280;30381;52.754;18.258;2023-03-25T07:11:29;99470.38;;;11.09;100.00
44663;BME280;30381;52.754;18.258;2023-03-25T07:13:56;99468.80;;;11.03;100.00
44663;BME280;30381;52.754;18.258;2023-03-25T07:16:23;99466.63;;;11.00;100.00
44663;BME280;30381;52.754;18.258;2023-03-25T07:18:55;99465.02;;;11.00;100.00
44663;BME280;30381;52.754;18.258;2023-03-25T07:21:33;99462.46;;;11.03;100.00
44663;BME280;30381;52.754;18.258;2023-03-25T07:24:10;99461.02;;;11.07;100.00
44663;BME280;30381;52.754;18.258;2023-03-25T07:26:52;99461.45;;;11.11;100.00
44663;BME280;30381;52.754;18.258;2023-03-25T07:29:23;99461.47;;;11.14;100.00
44663;BME280;30381;52.754;18.258;2023-03-25T07:32:10;99464.14;;;11.19;100.00
44663;BME280;30381;52.754;18.258;2023-03-25T07:57:53;99457.66;;;12.46;100.00
44663;BME280;30381;52.754;18.258;2023-03-25T08:00:58;99455.04;;;12.37;100.00
44663;BME280;30381;52.754;18.258;2023-03-25T08:03:59;99455.64;;;12.07;100.00
44663;BME280;30381;52.754;18.258;2023-03-25T08:07:03;99458.14;;;11.75;100.00
44663;BME280;30381;52.754;18.258;2023-03-25T08:13:13;99455.73;;;11.52;100.00
44663;BME280;30381;52.754;18.258;2023-03-25T08:16:14;99456.95;;;11.36;100.00
44663;BME280;30381;52.754;18.258;2023-03-25T08:26:15;99457.05;;;11.22;100.00
44663;BME280;30381;52.754;18.258;2023-03-25T09:01:52;99448.64;;;12.49;100.00
44663;BME280;30381;52.754;18.258;2023-03-25T09:04:28;99445.92;;;12.67;100.00
44663;BME280;30381;52.754;18.258;2023-03-25T09:07:18;99444.95;;;12.79;100.00
44663;BME280;30381;52.754;18.258;2023-03-25T09:09:57;99449.30;;;12.89;100.00
44663;BME280;30381;52.754;18.258;2023-03-25T09:12:58;99443.90;;;12.98;100.00
44663;BME280;30381;52.754;18.258;2023-03-25T09:16:13;99437.70;;;13.07;100.00
44663;BME280;30381;52.754;18.258;2023-03-25T09:19:04;99438.47;;;13.12;100.00
44663;BME280;30381;52.754;18.258;2023-03-25T09:21:52;99429.45;;;13.19;100.00
44663;BME280;30381;52.754;18.258;2023-03-25T09:24:21;99426.29;;;13.47;100.00
44663;BME280;30381;52.754;18.258;2023-03-25T09:28:07;99414.83;;;13.80;100.00
44663;BME280;30381;52.754;18.258;2023-03-25T09:58:01;99436.86;;;15.01;100.00
44663;BME280;30381;52.754;18.258;2023-03-25T10:10:51;99430.56;;;14.58;100.00
44663;BME280;30381;52.754;18.258;2023-03-25T10:24:17;99430.36;;;13.47;100.00
44663;BME280;30381;52.754;18.258;2023-03-25T10:31:17;99414.78;;;13.72;100.00
44663;BME280;30381;52.754;18.258;2023-03-25T10:33:53;99416.68;;;13.84;100.00
44663;BME280;30381;52.754;18.258;2023-03-25T10:36:51;99411.80;;;13.99;100.00
44663;BME280;30381;52.754;18.258;2023-03-25T10:39:30;99407.45;;;14.01;100.00
44663;BME280;30381;52.754;18.258;2023-03-25T10:42:18;99404.60;;;13.91;100.00
44663;BME280;30381;52.754;18.258;2023-03-25T10:45:14;99401.17;;;13.70;100.00
44663;BME280;30381;52.754;18.258;2023-03-25T10:58:13;99403.22;;;12.82;100.00
44663;BME280;30381;52.754;18.258;2023-03-25T11:00:51;99400.95;;;12.74;100.00
44663;BME280;30381;52.754;18.258;2023-03-25T11:03:29;99391.23;;;12.72;100.00
44663;BME280;30381;52.754;18.258;2023-03-25T11:06:01;99392.59;;;12.74;100.00
44663;BME280;30381;52.754;18.258;2023-03-25T11:09:09;99401.53;;;12.74;100.00
44663;BME280;30381;52.754;18.258;2023-03-25T11:14:44;99393.64;;;12.57;100.00
44663;BME280;30381;52.754;18.258;2023-03-25T11:17:14;99394.05;;;12.48;100.00
44663;BME280;30381;52.754;18.258;2023-03-25T11:25:32;99379.46;;;12.50;100.00
44663;BME280;30381;52.754;18.258;2023-03-25T11:28:16;99376.58;;;12.53;100.00
44663;BME280;30381;52.754;18.258;2023-03-25T11:38:17;99377.59;;;12.43;100.00
44663;BME280;30381;52.754;18.258;2023-03-25T11:57:33;99356.95;;;13.06;100.00
44663;BME280;30381;52.754;18.258;2023-03-25T12:15:17;99343.77;;;13.36;100.00
44663;BME280;30381;52.754;18.258;2023-03-25T12:18:53;99341.79;;;13.39;100.00
44663;BME280;30381;52.754;18.258;2023-03-25T12:21:18;99335.09;;;13.49;100.00
44663;BME280;30381;52.754;18.258;2023-03-25T12:32:18;99317.50;;;13.81;100.00
44663;BME280;30381;52.754;18.258;2023-03-25T12:43:09;99322.44;;;12.84;100.00
44663;BME280;30381;52.754;18.258;2023-03-25T12:46:01;99335.34;;;12.66;100.00
44663;BME280;30381;52.754;18.258;2023-03-25T12:51:26;99391.64;;;12.11;100.00
44663;BME280;30381;52.754;18.258;2023-03-25T12:54:25;99398.24;;;11.65;100.00
44663;BME280;30381;52.754;18.258;2023-03-25T13:00:15;99409.41;;;10.86;100.00
44663;BME280;30381;52.754;18.258;2023-03-25T13:03:18;99404.20;;;10.50;100.00
44663;BME280;30381;52.754;18.258;2023-03-25T13:08:01;99391.30;;;9.93;100.00
44663;BME280;30381;52.754;18.258;2023-03-25T13:10:35;99379.73;;;9.75;100.00
44663;BME280;30381;52.754;18.258;2023-03-25T13:13:18;99363.58;;;9.63;100.00
44663;BME280;30381;52.754;18.258;2023-03-25T13:15:49;99351.52;;;9.60;100.00
44663;BME280;30381;52.754;18.258;2023-03-25T13:18:30;99342.12;;;9.76;100.00
44663;BME280;30381;52.754;18.258;2023-03-25T13:21:03;99339.20;;;10.17;100.00
44663;BME280;30381;52.754;18.258;2023-03-25T13:23:33;99330.67;;;10.64;100.00
44663;BME280;30381;52.754;18.258;2023-03-25T13:26:06;99323.11;;;11.06;100.00
44663;BME280;30381;52.754;18.258;2023-03-25T13:28:38;99318.89;;;11.40;100.00
44663;BME280;30381;52.754;18.258;2023-03-25T13:31:09;99315.48;;;11.64;100.00
44663;BME280;30381;52.754;18.258;2023-03-25T13:33:46;99308.79;;;11.76;100.00
44663;BME280;30381;52.754;18.258;2023-03-25T13:36:27;99305.34;;;11.74;100.00
44663;BME280;30381;52.754;18.258;2023-03-25T13:38:56;99297.35;;;11.78;100.00
44663;BME280;30381;52.754;18.258;2023-03-25T13:44:18;99291.56;;;11.75;100.00
44663;BME280;30381;52.754;18.258;2023-03-25T13:49:38;99293.34;;;11.79;100.00
44663;BME280;30381;52.754;18.258;2023-03-25T13:52:08;99296.54;;;11.80;100.00
44663;BME280;30381;52.754;18.258;2023-03-25T13:54:43;99296.64;;;11.78;100.00
44663;BME280;30381;52.754;18.258;2023-03-25T14:01:02;99287.24;;;11.90;100.00
44663;BME280;30381;52.754;18.258;2023-03-25T14:03:25;99278.39;;;12.19;100.00
44663;BME280;30381;52.754;18.258;2023-03-25T14:06:39;99279.60;;;12.48;100.00
44663;BME280;30381;52.754;18.258;2023-03-25T14:09:25;99276.70;;;12.77;100.00
44663;BME280;30381;52.754;18.258;2023-03-25T14:12:11;99276.66;;;12.97;100.00
44663;BME280;30381;52.754;18.258;2023-03-25T14:15:02;99279.24;;;13.15;100.00
44663;BME280;30381;52.754;18.258;2023-03-25T14:17:31;99281.27;;;13.27;100.00
44663;BME280;30381;52.754;18.258;2023-03-25T14:20:03;99283.77;;;13.32;100.00
44663;BME280;30381;52.754;18.258;2023-03-25T14:22:37;99284.20;;;13.33;100.00
44663;BME280;30381;52.754;18.258;2023-03-25T14:25:19;99286.87;;;13.32;100.00
44663;BME280;30381;52.754;18.258;2023-03-25T14:27:48;99292.33;;;13.28;100.00
44663;BME280;30381;52.754;18.258;2023-03-25T14:30:22;99291.38;;;13.24;100.00
44663;BME280;30381;52.754;18.258;2023-03-25T14:32:50;99293.86;;;13.21;100.00
44663;BME280;30381;52.754;18.258;2023-03-25T14:43:31;99291.76;;;13.02;100.00
44663;BME280;30381;52.754;18.258;2023-03-25T14:48:41;99294.70;;;13.08;100.00
44663;BME280;30381;52.754;18.258;2023-03-25T14:51:19;99296.27;;;13.09;100.00
44663;BME280;30381;52.754;18.258;2023-03-25T14:54:02;99298.72;;;13.07;100.00
44663;BME280;30381;52.754;18.258;2023-03-25T14:56:33;99299.02;;;13.04;100.00
44663;BME280;30381;52.754;18.258;2023-03-25T14:59:16;99302.25;;;13.00;100.00
44663;BME280;30381;52.754;18.258;2023-03-25T15:01:45;99298.65;;;12.95;100.00
44663;BME280;30381;52.754;18.258;2023-03-25T15:06:43;99300.78;;;12.84;100.00
44663;BME280;30381;52.754;18.258;2023-03-25T15:09:14;99305.40;;;12.75;100.00
44663;BME280;30381;52.754;18.258;2023-03-25T15:11:50;99308.09;;;12.63;100.00
44663;BME280;30381;52.754;18.258;2023-03-25T15:14:23;99309.31;;;12.48;100.00
44663;BME280;30381;52.754;18.258;2023-03-25T15:17:10;99316.60;;;12.32;100.00
44663;BME280;30381;52.754;18.258;2023-03-25T15:22:24;99336.56;;;11.68;100.00
44663;BME280;30381;52.754;18.258;2023-03-25T15:24:56;99334.04;;;11.42;100.00
44663;BME280;30381;52.754;18.258;2023-03-25T15:27:46;99333.88;;;11.23;100.00
44663;BME280;30381;52.754;18.258;2023-03-25T15:33:19;99346.52;;;10.93;100.00
44663;BME280;30381;52.754;18.258;2023-03-25T15:39:07;99349.48;;;10.60;100.00
44663;BME280;30381;52.754;18.258;2023-03-25T15:53:33;99330.61;;;10.25;100.00
44663;BME280;30381;52.754;18.258;2023-03-25T15:56:11;99329.36;;;10.22;100.00
44663;BME280;30381;52.754;18.258;2023-03-25T15:58:48;99326.07;;;10.23;100.00
44663;BME280;30381;52.754;18.258;2023-03-25T16:01:26;99326.30;;;10.25;100.00
44663;BME280;30381;52.754;18.258;2023-03-25T16:04:25;99327.55;;;10.31;100.00
44663;BME280;30381;52.754;18.258;2023-03-25T16:06:55;99327.20;;;10.37;100.00
44663;BME280;30381;52.754;18.258;2023-03-25T16:09:26;99329.00;;;10.43;100.00
44663;BME280;30381;52.754;18.258;2023-03-25T16:12:01;99328.54;;;10.45;100.00
44663;BME280;30381;52.754;18.258;2023-03-25T16:14:29;99331.44;;;10.47;100.00
44663;BME280;30381;52.754;18.258;2023-03-25T16:16:59;99333.22;;;10.46;100.00
44663;BME280;30381;52.754;18.258;2023-03-25T16:19:43;99330.02;;;10.41;100.00
44663;BME280;30381;52.754;18.258;2023-03-25T16:22:30;99332.16;;;10.36;100.00
44663;BME280;30381;52.754;18.258;2023-03-25T16:25:10;99336.84;;;10.29;100.00
44663;BME280;30381;52.754;18.258;2023-03-25T16:27:45;99332.76;;;10.20;100.00
44663;BME280;30381;52.754;18.258;2023-03-25T16:32:51;99332.79;;;10.08;100.00
44663;BME280;30381;52.754;18.258;2023-03-25T16:35:26;99330.36;;;10.00;100.00
44663;BME280;30381;52.754;18.258;2023-03-25T16:37:55;99334.42;;;9.91;100.00
44663;BME280;30381;52.754;18.258;2023-03-25T16:40:31;99331.04;;;9.83;100.00
44663;BME280;30381;52.754;18.258;2023-03-25T16:43:22;99334.05;;;9.75;100.00
44663;BME280;30381;52.754;18.258;2023-03-25T16:45:51;99330.45;;;9.67;100.00
44663;BME280;30381;52.754;18.258;2023-03-25T16:48:29;99330.78;;;9.59;100.00
44663;BME280;30381;52.754;18.258;2023-03-25T16:50:59;99337.30;;;9.51;100.00
44663;BME280;30381;52.754;18.258;2023-03-25T16:53:26;99338.44;;;9.42;100.00
44663;BME280;30381;52.754;18.258;2023-03-25T16:55:58;99338.59;;;9.33;100.00
44663;BME280;30381;52.754;18.258;2023-03-25T16:58:29;99344.12;;;9.25;100.00
44663;BME280;30381;52.754;18.258;2023-03-25T17:01:00;99348.82;;;9.18;100.00
44663;BME280;30381;52.754;18.258;2023-03-25T17:03:42;99349.73;;;9.12;100.00
44663;BME280;30381;52.754;18.258;2023-03-25T17:06:33;99352.77;;;9.06;100.00
44663;BME280;30381;52.754;18.258;2023-03-25T17:09:01;99358.23;;;9.02;100.00
44663;BME280;30381;52.754;18.258;2023-03-25T17:11:31;99365.81;;;9.00;100.00
44663;BME280;30381;52.754;18.258;2023-03-25T17:14:03;99360.17;;;8.96;100.00
44663;BME280;30381;52.754;18.258;2023-03-25T17:16:32;99365.58;;;8.92;100.00
44663;BME280;30381;52.754;18.258;2023-03-25T17:19:00;99365.38;;;8.88;100.00
44663;BME280;30381;52.754;18.258;2023-03-25T17:21:29;99369.37;;;8.84;100.00
44663;BME280;30381;52.754;18.258;2023-03-25T17:24:04;99369.56;;;8.76;100.00
44663;BME280;30381;52.754;18.258;2023-03-25T17:27:06;99370.92;;;8.68;100.00
44663;BME280;30381;52.754;18.258;2023-03-25T17:29:55;99375.93;;;8.57;100.00
44663;BME280;30381;52.754;18.258;2023-03-25T17:32:23;99379.55;;;8.49;100.00
44663;BME280;30381;52.754;18.258;2023-03-25T17:35:15;99383.59;;;8.45;100.00
44663;BME280;30381;52.754;18.258;2023-03-25T17:37:49;99390.84;;;8.39;100.00
44663;BME280;30381;52.754;18.258;2023-03-25T17:40:25;99403.30;;;8.35;100.00
44663;BME280;30381;52.754;18.258;2023-03-25T17:42:59;99398.51;;;8.35;100.00
44663;BME280;30381;52.754;18.258;2023-03-25T17:45:29;99404.09;;;8.38;100.00
44663;BME280;30381;52.754;18.258;2023-03-25T17:47:57;99403.91;;;8.40;100.00
44663;BME280;30381;52.754;18.258;2023-03-25T17:50:24;99407.14;;;8.44;100.00
44663;BME280;30381;52.754;18.258;2023-03-25T17:52:53;99402.70;;;8.48;100.00
44663;BME280;30381;52.754;18.258;2023-03-25T17:55:21;99397.95;;;8.52;100.00
44663;BME280;30381;52.754;18.258;2023-03-25T17:57:48;99399.44;;;8.54;100.00
44663;BME280;30381;52.754;18.258;2023-03-25T18:00:22;99399.89;;;8.55;100.00
44663;BME280;30381;52.754;18.258;2023-03-25T18:03:04;99398.27;;;8.54;100.00
44663;BME280;30381;52.754;18.258;2023-03-25T18:05:35;99400.94;;;8.53;100.00